KTHA/THA METAR and TAF weather

Enter ICAO airport designator
Station Type Date Time Source
KTHA METAR 2020/10/29 16:15 UTC NOAA

KTHA 291615Z AUTO 22011G23KT 10SM FEW015 SCT021 BKN040 23/18 A2965 RMK A01


Station Type Date Time Source
KTHA Decoded METAR 2020/10/29 16:15 UTC NOAA

Station name not available
Oct 29, 2020 - 12:15 PM EDT / 2020.10.29 1615 UTC
Wind: from the SW (220 degrees) at 13 MPH (11 KT) gusting to 26 MPH (23 KT):0
Visibility: 10 mile(s):0
Sky conditions: mostly cloudy
Temperature: 73 F (23 C)
Dew Point: 64 F (18 C)
Relative Humidity: 73%
Pressure (altimeter): 29.65 in. Hg (1004 hPa)
ob: KTHA 291615Z AUTO 22011G23KT 10SM FEW015 SCT021 BKN040 23/18 A2965 RMK A01
cycle: 16

Station Type Date Time Source
KTHA TAF UTC NOAA

Error!

Example: see airport list